sensor_id;sensor_type;location;lat;lon;timestamp;temperature;humidity
17489;DHT22;8861;52.644;4.734;2023-08-24T00:00:21;17.60;99.90
17489;DHT22;8861;52.644;4.734;2023-08-24T00:02:49;17.60;99.90
17489;DHT22;8861;52.644;4.734;2023-08-24T00:05:16;17.60;99.90
17489;DHT22;8861;52.644;4.734;2023-08-24T00:07:43;17.70;99.90
17489;DHT22;8861;52.644;4.734;2023-08-24T00:10:10;17.70;99.90
17489;DHT22;8861;52.644;4.734;2023-08-24T00:12:37;17.70;99.90
17489;DHT22;8861;52.644;4.734;2023-08-24T00:15:08;17.70;99.90
17489;DHT22;8861;52.644;4.734;2023-08-24T00:17:36;17.80;99.90
17489;DHT22;8861;52.644;4.734;2023-08-24T00:20:07;17.80;99.90
17489;DHT22;8861;52.644;4.734;2023-08-24T00:22:37;17.80;99.90
17489;DHT22;8861;52.644;4.734;2023-08-24T00:25:05;17.80;99.90
17489;DHT22;8861;52.644;4.734;2023-08-24T00:27:33;17.80;99.90
17489;DHT22;8861;52.644;4.734;2023-08-24T00:30:01;17.80;99.90
17489;DHT22;8861;52.644;4.734;2023-08-24T00:32:29;17.90;99.90
17489;DHT22;8861;52.644;4.734;2023-08-24T00:35:00;17.90;99.90
17489;DHT22;8861;52.644;4.734;2023-08-24T00:37:28;17.90;99.90
17489;DHT22;8861;52.644;4.734;2023-08-24T00:39:55;17.90;99.90
17489;DHT22;8861;52.644;4.734;2023-08-24T00:42:22;17.90;99.90
17489;DHT22;8861;52.644;4.734;2023-08-24T00:44:50;17.90;99.90
17489;DHT22;8861;52.644;4.734;2023-08-24T00:47:17;17.90;99.90
17489;DHT22;8861;52.644;4.734;2023-08-24T00:49:44;17.90;99.90
17489;DHT22;8861;52.644;4.734;2023-08-24T00:52:12;17.90;99.90
17489;DHT22;8861;52.644;4.734;2023-08-24T00:54:41;18.00;99.90
17489;DHT22;8861;52.644;4.734;2023-08-24T00:57:08;17.90;99.90
17489;DHT22;8861;52.644;4.734;2023-08-24T00:59:36;18.00;99.90
17489;DHT22;8861;52.644;4.734;2023-08-24T01:02:03;18.00;99.90
17489;DHT22;8861;52.644;4.734;2023-08-24T01:04:30;18.00;99.90
17489;DHT22;8861;52.644;4.734;2023-08-24T01:06:57;17.90;99.90
17489;DHT22;8861;52.644;4.734;2023-08-24T01:09:24;18.00;99.90
17489;DHT22;8861;52.644;4.734;2023-08-24T01:11:59;17.90;99.90
17489;DHT22;8861;52.644;4.734;2023-08-24T01:14:36;17.90;99.90
17489;DHT22;8861;52.644;4.734;2023-08-24T01:17:09;17.90;99.90
17489;DHT22;8861;52.644;4.734;2023-08-24T01:19:39;17.90;99.90
17489;DHT22;8861;52.644;4.734;2023-08-24T01:22:17;17.80;99.90
17489;DHT22;8861;52.644;4.734;2023-08-24T01:24:53;17.80;99.90
17489;DHT22;8861;52.644;4.734;2023-08-24T01:27:22;17.80;99.90
17489;DHT22;8861;52.644;4.734;2023-08-24T01:29:49;17.80;99.90
17489;DHT22;8861;52.644;4.734;2023-08-24T01:32:18;17.80;99.90
17489;DHT22;8861;52.644;4.734;2023-08-24T01:34:45;17.80;99.90
17489;DHT22;8861;52.644;4.734;2023-08-24T01:37:12;17.80;99.90
17489;DHT22;8861;52.644;4.734;2023-08-24T01:39:44;17.80;99.90
17489;DHT22;8861;52.644;4.734;2023-08-24T01:42:19;17.80;99.90
17489;DHT22;8861;52.644;4.734;2023-08-24T01:44:52;17.80;99.90
17489;DHT22;8861;52.644;4.734;2023-08-24T01:47:25;17.80;99.90
17489;DHT22;8861;52.644;4.734;2023-08-24T01:49:52;17.80;99.90
17489;DHT22;8861;52.644;4.734;2023-08-24T01:52:20;17.80;99.90
17489;DHT22;8861;52.644;4.734;2023-08-24T01:54:48;17.80;99.90
17489;DHT22;8861;52.644;4.734;2023-08-24T01:57:15;17.80;99.90
17489;DHT22;8861;52.644;4.734;2023-08-24T01:59:42;17.80;99.90
17489;DHT22;8861;52.644;4.734;2023-08-24T02:02:10;17.80;99.90
17489;DHT22;8861;52.644;4.734;2023-08-24T02:04:37;17.80;99.90
17489;DHT22;8861;52.644;4.734;2023-08-24T02:07:04;17.80;99.90
17489;DHT22;8861;52.644;4.734;2023-08-24T02:09:31;17.80;99.90
17489;DHT22;8861;52.644;4.734;2023-08-24T02:11:58;17.80;99.90
17489;DHT22;8861;52.644;4.734;2023-08-24T02:14:25;17.80;99.90
17489;DHT22;8861;52.644;4.734;2023-08-24T02:16:52;17.80;99.90
17489;DHT22;8861;52.644;4.734;2023-08-24T02:19:21;17.80;99.90
17489;DHT22;8861;52.644;4.734;2023-08-24T02:21:48;17.70;99.90
17489;DHT22;8861;52.644;4.734;2023-08-24T02:24:15;17.70;99.90
17489;DHT22;8861;52.644;4.734;2023-08-24T02:26:42;17.60;99.90
17489;DHT22;8861;52.644;4.734;2023-08-24T02:29:09;17.60;99.90
17489;DHT22;8861;52.644;4.734;2023-08-24T02:31:36;17.50;99.90
17489;DHT22;8861;52.644;4.734;2023-08-24T02:34:03;17.50;99.90
17489;DHT22;8861;52.644;4.734;2023-08-24T02:36:32;17.40;99.90
17489;DHT22;8861;52.644;4.734;2023-08-24T02:38:59;17.40;99.90
17489;DHT22;8861;52.644;4.734;2023-08-24T02:41:27;17.40;99.90
17489;DHT22;8861;52.644;4.734;2023-08-24T02:43:54;17.30;99.90
17489;DHT22;8861;52.644;4.734;2023-08-24T02:46:21;17.30;99.90
17489;DHT22;8861;52.644;4.734;2023-08-24T02:48:48;17.30;99.90
17489;DHT22;8861;52.644;4.734;2023-08-24T02:51:15;17.20;99.90
17489;DHT22;8861;52.644;4.734;2023-08-24T02:53:44;17.20;99.90
17489;DHT22;8861;52.644;4.734;2023-08-24T02:56:11;17.20;99.90
17489;DHT22;8861;52.644;4.734;2023-08-24T02:58:38;17.20;99.90
17489;DHT22;8861;52.644;4.734;2023-08-24T03:01:05;17.10;99.90
17489;DHT22;8861;52.644;4.734;2023-08-24T03:03:33;17.10;99.90
17489;DHT22;8861;52.644;4.734;2023-08-24T03:06:02;17.10;99.90
17489;DHT22;8861;52.644;4.734;2023-08-24T03:08:29;17.10;99.90
17489;DHT22;8861;52.644;4.734;2023-08-24T03:10:58;17.10;99.90
17489;DHT22;8861;52.644;4.734;2023-08-24T03:13:25;17.10;99.90
17489;DHT22;8861;52.644;4.734;2023-08-24T03:15:52;17.10;99.90
17489;DHT22;8861;52.644;4.734;2023-08-24T03:18:20;17.00;99.90
17489;DHT22;8861;52.644;4.734;2023-08-24T03:20:48;17.00;99.90
17489;DHT22;8861;52.644;4.734;2023-08-24T03:23:15;17.00;99.90
17489;DHT22;8861;52.644;4.734;2023-08-24T03:25:43;17.00;99.90
17489;DHT22;8861;52.644;4.734;2023-08-24T03:28:11;16.90;99.90
17489;DHT22;8861;52.644;4.734;2023-08-24T03:30:39;17.00;99.90
17489;DHT22;8861;52.644;4.734;2023-08-24T03:33:06;16.90;99.90
17489;DHT22;8861;52.644;4.734;2023-08-24T03:35:34;16.90;99.90
17489;DHT22;8861;52.644;4.734;2023-08-24T03:38:01;16.90;99.90
17489;DHT22;8861;52.644;4.734;2023-08-24T03:40:28;16.90;99.90
17489;DHT22;8861;52.644;4.734;2023-08-24T03:42:56;16.90;99.90
17489;DHT22;8861;52.644;4.734;2023-08-24T03:45:24;16.90;99.90
17489;DHT22;8861;52.644;4.734;2023-08-24T03:47:51;16.90;99.90
17489;DHT22;8861;52.644;4.734;2023-08-24T03:50:18;16.90;99.90
17489;DHT22;8861;52.644;4.734;2023-08-24T03:52:45;16.90;99.90
17489;DHT22;8861;52.644;4.734;2023-08-24T03:55:12;16.90;99.90
17489;DHT22;8861;52.644;4.734;2023-08-24T03:57:39;16.90;99.90
17489;DHT22;8861;52.644;4.734;2023-08-24T04:00:07;16.90;99.90
17489;DHT22;8861;52.644;4.734;2023-08-24T04:02:38;16.90;99.90
17489;DHT22;8861;52.644;4.734;2023-08-24T04:05:05;16.90;99.90
17489;DHT22;8861;52.644;4.734;2023-08-24T04:07:32;16.90;99.90
17489;DHT22;8861;52.644;4.734;2023-08-24T04:10:02;16.90;99.90
17489;DHT22;8861;52.644;4.734;2023-08-24T04:12:30;16.90;99.90
17489;DHT22;8861;52.644;4.734;2023-08-24T04:14:57;16.90;99.90
17489;DHT22;8861;52.644;4.734;2023-08-24T04:17:24;16.90;99.90
17489;DHT22;8861;52.644;4.734;2023-08-24T04:19:53;16.80;99.90
17489;DHT22;8861;52.644;4.734;2023-08-24T04:22:20;16.80;99.90
17489;DHT22;8861;52.644;4.734;2023-08-24T04:24:47;16.80;99.90
17489;DHT22;8861;52.644;4.734;2023-08-24T04:27:14;16.80;99.90
17489;DHT22;8861;52.644;4.734;2023-08-24T04:29:41;16.80;99.90
17489;DHT22;8861;52.644;4.734;2023-08-24T04:32:08;16.90;99.90
17489;DHT22;8861;52.644;4.734;2023-08-24T04:34:35;16.80;99.90
17489;DHT22;8861;52.644;4.734;2023-08-24T04:37:03;16.80;99.90
17489;DHT22;8861;52.644;4.734;2023-08-24T04:39:30;16.80;99.90
17489;DHT22;8861;52.644;4.734;2023-08-24T04:41:57;16.80;99.90
17489;DHT22;8861;52.644;4.734;2023-08-24T04:44:24;16.80;99.90
17489;DHT22;8861;52.644;4.734;2023-08-24T04:46:51;16.80;99.90
17489;DHT22;8861;52.644;4.734;2023-08-24T04:49:18;16.80;99.90
17489;DHT22;8861;52.644;4.734;2023-08-24T04:51:45;16.80;99.90
17489;DHT22;8861;52.644;4.734;2023-08-24T04:54:13;16.80;99.90
17489;DHT22;8861;52.644;4.734;2023-08-24T04:56:40;16.80;99.90
17489;DHT22;8861;52.644;4.734;2023-08-24T04:59:07;16.80;99.90
17489;DHT22;8861;52.644;4.734;2023-08-24T05:01:34;16.80;99.90
17489;DHT22;8861;52.644;4.734;2023-08-24T05:04:03;16.80;99.90
17489;DHT22;8861;52.644;4.734;2023-08-24T05:06:30;16.80;99.90
17489;DHT22;8861;52.644;4.734;2023-08-24T05:08:57;16.80;99.90
17489;DHT22;8861;52.644;4.734;2023-08-24T05:11:27;16.90;99.90
17489;DHT22;8861;52.644;4.734;2023-08-24T05:13:56;16.80;99.90
17489;DHT22;8861;52.644;4.734;2023-08-24T05:16:23;16.90;99.90
17489;DHT22;8861;52.644;4.734;2023-08-24T05:18:50;16.90;99.90
17489;DHT22;8861;52.644;4.734;2023-08-24T05:21:17;16.90;99.90
17489;DHT22;8861;52.644;4.734;2023-08-24T05:23:44;16.90;99.90
17489;DHT22;8861;52.644;4.734;2023-08-24T05:26:11;17.00;99.90
17489;DHT22;8861;52.644;4.734;2023-08-24T05:28:40;17.00;99.90
17489;DHT22;8861;52.644;4.734;2023-08-24T05:31:07;17.10;99.90
17489;DHT22;8861;52.644;4.734;2023-08-24T05:33:34;17.10;99.90
17489;DHT22;8861;52.644;4.734;2023-08-24T05:36:01;17.20;99.90
17489;DHT22;8861;52.644;4.734;2023-08-24T05:38:27;17.30;99.90
17489;DHT22;8861;52.644;4.734;2023-08-24T05:40:54;17.40;99.90
17489;DHT22;8861;52.644;4.734;2023-08-24T05:43:21;17.50;99.90
17489;DHT22;8861;52.644;4.734;2023-08-24T05:45:50;17.50;99.90
17489;DHT22;8861;52.644;4.734;2023-08-24T05:48:16;17.60;99.90
17489;DHT22;8861;52.644;4.734;2023-08-24T05:50:44;17.60;99.90
17489;DHT22;8861;52.644;4.734;2023-08-24T05:53:12;17.60;99.90
17489;DHT22;8861;52.644;4.734;2023-08-24T05:55:42;17.70;99.90
17489;DHT22;8861;52.644;4.734;2023-08-24T05:58:09;17.70;99.90
17489;DHT22;8861;52.644;4.734;2023-08-24T06:00:36;17.70;99.90
17489;DHT22;8861;52.644;4.734;2023-08-24T06:03:04;17.80;99.90
17489;DHT22;8861;52.644;4.734;2023-08-24T06:05:31;17.80;99.90
17489;DHT22;8861;52.644;4.734;2023-08-24T06:07:59;17.90;99.90
17489;DHT22;8861;52.644;4.734;2023-08-24T06:10:26;17.90;99.90
17489;DHT22;8861;52.644;4.734;2023-08-24T06:12:53;18.00;99.90
17489;DHT22;8861;52.644;4.734;2023-08-24T06:15:20;18.00;99.90
17489;DHT22;8861;52.644;4.734;2023-08-24T06:17:49;18.10;99.90
17489;DHT22;8861;52.644;4.734;2023-08-24T06:20:18;18.20;99.90
17489;DHT22;8861;52.644;4.734;2023-08-24T06:22:45;18.20;99.90
17489;DHT22;8861;52.644;4.734;2023-08-24T06:25:12;18.30;99.90
17489;DHT22;8861;52.644;4.734;2023-08-24T06:27:40;18.30;99.90
17489;DHT22;8861;52.644;4.734;2023-08-24T06:30:07;18.40;99.90
17489;DHT22;8861;52.644;4.734;2023-08-24T06:32:34;18.50;99.90
17489;DHT22;8861;52.644;4.734;2023-08-24T06:35:02;18.50;99.90
17489;DHT22;8861;52.644;4.734;2023-08-24T06:37:31;18.60;99.90
17489;DHT22;8861;52.644;4.734;2023-08-24T06:39:58;18.60;99.90
17489;DHT22;8861;52.644;4.734;2023-08-24T06:42:25;18.70;99.90
17489;DHT22;8861;52.644;4.734;2023-08-24T06:44:52;18.80;99.90
17489;DHT22;8861;52.644;4.734;2023-08-24T06:47:19;18.80;99.90
17489;DHT22;8861;52.644;4.734;2023-08-24T06:49:46;18.90;99.90
17489;DHT22;8861;52.644;4.734;2023-08-24T06:52:13;19.00;99.90
17489;DHT22;8861;52.644;4.734;2023-08-24T06:54:41;19.10;99.90
17489;DHT22;8861;52.644;4.734;2023-08-24T06:57:08;19.10;99.90
17489;DHT22;8861;52.644;4.734;2023-08-24T06:59:35;19.20;99.90
17489;DHT22;8861;52.644;4.734;2023-08-24T07:02:02;19.20;99.90
17489;DHT22;8861;52.644;4.734;2023-08-24T07:04:30;19.30;99.90
17489;DHT22;8861;52.644;4.734;2023-08-24T07:06:57;19.30;99.90
17489;DHT22;8861;52.644;4.734;2023-08-24T07:09:24;19.40;99.90
17489;DHT22;8861;52.644;4.734;2023-08-24T07:11:52;19.50;99.90
17489;DHT22;8861;52.644;4.734;2023-08-24T07:14:19;19.60;99.90
17489;DHT22;8861;52.644;4.734;2023-08-24T07:16:46;19.60;99.90
17489;DHT22;8861;52.644;4.734;2023-08-24T07:19:13;19.70;99.90
17489;DHT22;8861;52.644;4.734;2023-08-24T07:21:40;19.70;99.90
17489;DHT22;8861;52.644;4.734;2023-08-24T07:24:07;19.80;99.90
17489;DHT22;8861;52.644;4.734;2023-08-24T07:26:34;19.80;99.90
17489;DHT22;8861;52.644;4.734;2023-08-24T07:29:03;19.80;99.90
17489;DHT22;8861;52.644;4.734;2023-08-24T07:31:30;19.90;99.90
17489;DHT22;8861;52.644;4.734;2023-08-24T07:33:57;19.90;99.90
17489;DHT22;8861;52.644;4.734;2023-08-24T07:36:24;20.00;99.90
17489;DHT22;8861;52.644;4.734;2023-08-24T07:38:51;20.10;99.90
17489;DHT22;8861;52.644;4.734;2023-08-24T07:41:18;20.10;99.90
17489;DHT22;8861;52.644;4.734;2023-08-24T07:43:45;20.20;99.90
17489;DHT22;8861;52.644;4.734;2023-08-24T07:46:14;20.30;99.90
17489;DHT22;8861;52.644;4.734;2023-08-24T07:48:40;20.50;99.90
17489;DHT22;8861;52.644;4.734;2023-08-24T07:51:08;20.80;99.90
17489;DHT22;8861;52.644;4.734;2023-08-24T07:53:35;21.10;99.90
17489;DHT22;8861;52.644;4.734;2023-08-24T07:56:02;21.40;99.90
17489;DHT22;8861;52.644;4.734;2023-08-24T07:58:29;21.80;99.90
17489;DHT22;8861;52.644;4.734;2023-08-24T08:00:58;22.00;99.90
17489;DHT22;8861;52.644;4.734;2023-08-24T08:03:26;22.20;99.90
17489;DHT22;8861;52.644;4.734;2023-08-24T08:05:55;22.20;99.90
17489;DHT22;8861;52.644;4.734;2023-08-24T08:08:24;22.30;99.90
17489;DHT22;8861;52.644;4.734;2023-08-24T08:10:57;22.20;99.90
17489;DHT22;8861;52.644;4.734;2023-08-24T08:13:25;22.20;99.90
17489;DHT22;8861;52.644;4.734;2023-08-24T08:15:52;22.10;99.90
17489;DHT22;8861;52.644;4.734;2023-08-24T08:18:19;22.00;99.90
17489;DHT22;8861;52.644;4.734;2023-08-24T08:20:51;21.90;99.90
17489;DHT22;8861;52.644;4.734;2023-08-24T08:23:18;21.80;99.90
17489;DHT22;8861;52.644;4.734;2023-08-24T08:25:45;21.70;99.90
17489;DHT22;8861;52.644;4.734;2023-08-24T08:28:12;21.60;99.90
17489;DHT22;8861;52.644;4.734;2023-08-24T08:30:39;21.50;99.90
17489;DHT22;8861;52.644;4.734;2023-08-24T08:33:06;21.40;99.90
17489;DHT22;8861;52.644;4.734;2023-08-24T08:35:33;21.30;99.90
17489;DHT22;8861;52.644;4.734;2023-08-24T08:38:02;21.10;99.90
17489;DHT22;8861;52.644;4.734;2023-08-24T08:40:30;21.00;99.90
17489;DHT22;8861;52.644;4.734;2023-08-24T08:42:57;20.90;99.90
17489;DHT22;8861;52.644;4.734;2023-08-24T08:45:25;20.80;99.90
17489;DHT22;8861;52.644;4.734;2023-08-24T08:47:55;20.80;99.90
17489;DHT22;8861;52.644;4.734;2023-08-24T08:50:23;20.70;99.90
17489;DHT22;8861;52.644;4.734;2023-08-24T08:52:50;20.60;99.90
17489;DHT22;8861;52.644;4.734;2023-08-24T08:55:19;20.60;99.90
17489;DHT22;8861;52.644;4.734;2023-08-24T08:57:48;20.50;99.90
17489;DHT22;8861;52.644;4.734;2023-08-24T09:00:16;20.40;99.90
17489;DHT22;8861;52.644;4.734;2023-08-24T09:02:45;20.40;99.90
17489;DHT22;8861;52.644;4.734;2023-08-24T09:05:12;20.30;99.90
17489;DHT22;8861;52.644;4.734;2023-08-24T09:07:40;20.20;99.90
17489;DHT22;8861;52.644;4.734;2023-08-24T09:10:07;20.20;99.90
17489;DHT22;8861;52.644;4.734;2023-08-24T09:12:36;20.10;99.90
17489;DHT22;8861;52.644;4.734;2023-08-24T09:15:03;20.10;99.90
17489;DHT22;8861;52.644;4.734;2023-08-24T09:17:32;20.00;99.90
17489;DHT22;8861;52.644;4.734;2023-08-24T09:20:02;20.00;99.90
17489;DHT22;8861;52.644;4.734;2023-08-24T09:22:35;19.90;99.90
17489;DHT22;8861;52.644;4.734;2023-08-24T09:25:03;19.80;99.90
17489;DHT22;8861;52.644;4.734;2023-08-24T09:27:32;19.80;99.90
17489;DHT22;8861;52.644;4.734;2023-08-24T09:30:02;19.80;99.90
17489;DHT22;8861;52.644;4.734;2023-08-24T09:32:31;19.70;99.90
17489;DHT22;8861;52.644;4.734;2023-08-24T09:35:02;19.70;99.90
17489;DHT22;8861;52.644;4.734;2023-08-24T09:37:32;19.70;99.90
17489;DHT22;8861;52.644;4.734;2023-08-24T09:40:04;19.70;99.90
17489;DHT22;8861;52.644;4.734;2023-08-24T09:42:37;19.70;99.90
17489;DHT22;8861;52.644;4.734;2023-08-24T09:45:08;19.60;99.90
17489;DHT22;8861;52.644;4.734;2023-08-24T09:47:37;19.50;99.90
17489;DHT22;8861;52.644;4.734;2023-08-24T09:50:05;19.40;99.90
17489;DHT22;8861;52.644;4.734;2023-08-24T09:52:34;19.40;99.90
17489;DHT22;8861;52.644;4.734;2023-08-24T09:55:03;19.40;99.90
17489;DHT22;8861;52.644;4.734;2023-08-24T09:57:34;19.40;99.90
17489;DHT22;8861;52.644;4.734;2023-08-24T10:00:07;19.30;99.90
17489;DHT22;8861;52.644;4.734;2023-08-24T10:02:39;19.30;99.90
17489;DHT22;8861;52.644;4.734;2023-08-24T10:05:08;19.30;99.90
17489;DHT22;8861;52.644;4.734;2023-08-24T10:07:38;19.20;99.90
17489;DHT22;8861;52.644;4.734;2023-08-24T10:10:09;19.30;99.90
17489;DHT22;8861;52.644;4.734;2023-08-24T10:12:44;19.30;99.90
17489;DHT22;8861;52.644;4.734;2023-08-24T10:15:15;19.20;99.90
17489;DHT22;8861;52.644;4.734;2023-08-24T10:17:43;19.20;99.90
17489;DHT22;8861;52.644;4.734;2023-08-24T10:20:11;19.20;99.90
17489;DHT22;8861;52.644;4.734;2023-08-24T10:22:38;19.20;99.90
17489;DHT22;8861;52.644;4.734;2023-08-24T10:25:07;19.20;99.90
17489;DHT22;8861;52.644;4.734;2023-08-24T10:27:35;19.20;99.90
17489;DHT22;8861;52.644;4.734;2023-08-24T10:30:03;19.20;99.90
17489;DHT22;8861;52.644;4.734;2023-08-24T10:32:31;19.10;99.90
17489;DHT22;8861;52.644;4.734;2023-08-24T10:34:58;19.10;99.90
17489;DHT22;8861;52.644;4.734;2023-08-24T10:37:26;19.00;99.90
17489;DHT22;8861;52.644;4.734;2023-08-24T10:39:54;18.90;99.90
17489;DHT22;8861;52.644;4.734;2023-08-24T10:42:21;18.80;99.90
17489;DHT22;8861;52.644;4.734;2023-08-24T10:44:48;18.80;99.90
17489;DHT22;8861;52.644;4.734;2023-08-24T10:47:18;18.80;99.90
17489;DHT22;8861;52.644;4.734;2023-08-24T10:49:58;18.80;99.90
17489;DHT22;8861;52.644;4.734;2023-08-24T10:52:29;18.90;99.90
17489;DHT22;8861;52.644;4.734;2023-08-24T10:54:57;18.90;99.90
17489;DHT22;8861;52.644;4.734;2023-08-24T10:57:34;18.90;99.90
17489;DHT22;8861;52.644;4.734;2023-08-24T11:00:06;18.90;99.90
17489;DHT22;8861;52.644;4.734;2023-08-24T11:02:42;18.90;99.90
17489;DHT22;8861;52.644;4.734;2023-08-24T11:05:19;18.90;99.90
17489;DHT22;8861;52.644;4.734;2023-08-24T11:07:54;18.90;99.90
17489;DHT22;8861;52.644;4.734;2023-08-24T11:10:22;18.90;99.90
17489;DHT22;8861;52.644;4.734;2023-08-24T11:13:09;18.90;99.90
17489;DHT22;8861;52.644;4.734;2023-08-24T11:15:41;18.90;99.90
17489;DHT22;8861;52.644;4.734;2023-08-24T11:18:21;18.90;99.90
17489;DHT22;8861;52.644;4.734;2023-08-24T11:20:51;18.90;99.90
17489;DHT22;8861;52.644;4.734;2023-08-24T11:23:19;19.00;99.90
17489;DHT22;8861;52.644;4.734;2023-08-24T11:25:49;19.00;99.90
17489;DHT22;8861;52.644;4.734;2023-08-24T11:28:18;19.10;99.90
17489;DHT22;8861;52.644;4.734;2023-08-24T11:30:46;19.20;99.90
17489;DHT22;8861;52.644;4.734;2023-08-24T11:33:14;19.30;99.90
17489;DHT22;8861;52.644;4.734;2023-08-24T11:35:43;19.30;99.90
17489;DHT22;8861;52.644;4.734;2023-08-24T11:38:12;19.30;99.90
17489;DHT22;8861;52.644;4.734;2023-08-24T11:40:39;19.40;99.90
17489;DHT22;8861;52.644;4.734;2023-08-24T11:43:06;19.40;99.90
17489;DHT22;8861;52.644;4.734;2023-08-24T11:45:35;19.40;99.90
17489;DHT22;8861;52.644;4.734;2023-08-24T11:48:04;19.40;99.90
17489;DHT22;8861;52.644;4.734;2023-08-24T11:50:32;19.40;99.90
17489;DHT22;8861;52.644;4.734;2023-08-24T11:53:00;19.50;99.90
17489;DHT22;8861;52.644;4.734;2023-08-24T11:55:29;19.70;99.90
17489;DHT22;8861;52.644;4.734;2023-08-24T11:57:56;19.80;99.90
17489;DHT22;8861;52.644;4.734;2023-08-24T12:00:24;19.90;99.90
17489;DHT22;8861;52.644;4.734;2023-08-24T12:02:51;19.90;99.90
17489;DHT22;8861;52.644;4.734;2023-08-24T12:05:22;19.90;99.90
17489;DHT22;8861;52.644;4.734;2023-08-24T12:07:51;19.90;99.90
17489;DHT22;8861;52.644;4.734;2023-08-24T12:10:19;20.00;99.90
17489;DHT22;8861;52.644;4.734;2023-08-24T12:12:48;20.20;99.90
17489;DHT22;8861;52.644;4.734;2023-08-24T12:15:16;20.40;99.90
17489;DHT22;8861;52.644;4.734;2023-08-24T12:17:44;20.60;99.90
17489;DHT22;8861;52.644;4.734;2023-08-24T12:20:18;21.00;99.90
17489;DHT22;8861;52.644;4.734;2023-08-24T12:22:53;21.40;99.90
17489;DHT22;8861;52.644;4.734;2023-08-24T12:25:23;21.70;99.90
17489;DHT22;8861;52.644;4.734;2023-08-24T12:27:52;22.20;99.90
17489;DHT22;8861;52.644;4.734;2023-08-24T12:30:20;22.50;99.90
17489;DHT22;8861;52.644;4.734;2023-08-24T12:32:48;22.80;99.90
17489;DHT22;8861;52.644;4.734;2023-08-24T12:35:16;23.00;99.90
17489;DHT22;8861;52.644;4.734;2023-08-24T12:37:44;23.10;99.90
17489;DHT22;8861;52.644;4.734;2023-08-24T12:40:12;23.20;99.90
17489;DHT22;8861;52.644;4.734;2023-08-24T12:42:40;23.10;99.90
17489;DHT22;8861;52.644;4.734;2023-08-24T12:45:09;23.00;99.90
17489;DHT22;8861;52.644;4.734;2023-08-24T12:47:36;23.00;99.90
17489;DHT22;8861;52.644;4.734;2023-08-24T12:50:06;23.00;99.90
17489;DHT22;8861;52.644;4.734;2023-08-24T12:52:33;22.90;99.90
17489;DHT22;8861;52.644;4.734;2023-08-24T12:55:00;23.00;99.90
17489;DHT22;8861;52.644;4.734;2023-08-24T12:57:29;23.10;99.90
17489;DHT22;8861;52.644;4.734;2023-08-24T12:59:56;23.10;99.90
17489;DHT22;8861;52.644;4.734;2023-08-24T13:02:25;23.20;99.90
17489;DHT22;8861;52.644;4.734;2023-08-24T13:04:52;23.20;99.90
17489;DHT22;8861;52.644;4.734;2023-08-24T13:07:19;23.20;99.90
17489;DHT22;8861;52.644;4.734;2023-08-24T13:09:46;23.20;99.90
17489;DHT22;8861;52.644;4.734;2023-08-24T13:12:13;23.10;99.90
17489;DHT22;8861;52.644;4.734;2023-08-24T13:14:40;22.90;99.90
17489;DHT22;8861;52.644;4.734;2023-08-24T13:17:07;22.80;99.90
17489;DHT22;8861;52.644;4.734;2023-08-24T13:19:36;22.60;99.90
17489;DHT22;8861;52.644;4.734;2023-08-24T13:22:03;22.40;99.90
17489;DHT22;8861;52.644;4.734;2023-08-24T13:24:30;22.20;99.90
17489;DHT22;8861;52.644;4.734;2023-08-24T13:26:57;22.00;99.90
17489;DHT22;8861;52.644;4.734;2023-08-24T13:29:25;21.90;99.90
17489;DHT22;8861;52.644;4.734;2023-08-24T13:31:52;21.80;99.90
17489;DHT22;8861;52.644;4.734;2023-08-24T13:34:19;21.80;99.90
17489;DHT22;8861;52.644;4.734;2023-08-24T13:36:47;21.80;99.90
17489;DHT22;8861;52.644;4.734;2023-08-24T13:39:14;21.80;99.90
17489;DHT22;8861;52.644;4.734;2023-08-24T13:41:41;21.70;99.90
17489;DHT22;8861;52.644;4.734;2023-08-24T13:44:08;21.80;99.90
17489;DHT22;8861;52.644;4.734;2023-08-24T13:46:35;21.80;99.90
17489;DHT22;8861;52.644;4.734;2023-08-24T13:49:02;21.90;99.90
17489;DHT22;8861;52.644;4.734;2023-08-24T13:51:29;21.90;99.90
17489;DHT22;8861;52.644;4.734;2023-08-24T13:53:58;21.90;99.90
17489;DHT22;8861;52.644;4.734;2023-08-24T13:56:25;21.80;99.90
17489;DHT22;8861;52.644;4.734;2023-08-24T13:58:52;21.80;99.90
17489;DHT22;8861;52.644;4.734;2023-08-24T14:01:19;21.70;99.90
17489;DHT22;8861;52.644;4.734;2023-08-24T14:03:46;21.60;99.90
17489;DHT22;8861;52.644;4.734;2023-08-24T14:06:13;21.50;99.90
17489;DHT22;8861;52.644;4.734;2023-08-24T14:08:40;21.40;99.90
17489;DHT22;8861;52.644;4.734;2023-08-24T14:11:09;21.40;99.90
17489;DHT22;8861;52.644;4.734;2023-08-24T14:13:36;21.30;99.90
17489;DHT22;8861;52.644;4.734;2023-08-24T14:16:03;21.30;99.90
17489;DHT22;8861;52.644;4.734;2023-08-24T14:18:30;21.20;99.90
17489;DHT22;8861;52.644;4.734;2023-08-24T14:20:57;21.20;99.90
17489;DHT22;8861;52.644;4.734;2023-08-24T14:23:24;21.10;99.90
17489;DHT22;8861;52.644;4.734;2023-08-24T14:25:51;21.10;99.90
17489;DHT22;8861;52.644;4.734;2023-08-24T14:28:21;21.10;99.90
17489;DHT22;8861;52.644;4.734;2023-08-24T14:30:48;21.10;99.90
17489;DHT22;8861;52.644;4.734;2023-08-24T14:33:15;21.10;99.90
17489;DHT22;8861;52.644;4.734;2023-08-24T14:35:52;21.10;99.90
17489;DHT22;8861;52.644;4.734;2023-08-24T14:38:19;21.00;99.90
17489;DHT22;8861;52.644;4.734;2023-08-24T14:40:47;21.00;99.90
17489;DHT22;8861;52.644;4.734;2023-08-24T14:43:14;21.00;99.90
17489;DHT22;8861;52.644;4.734;2023-08-24T14:45:42;21.00;99.90
17489;DHT22;8861;52.644;4.734;2023-08-24T14:48:09;21.10;99.90
17489;DHT22;8861;52.644;4.734;2023-08-24T14:50:38;21.10;99.90
17489;DHT22;8861;52.644;4.734;2023-08-24T14:53:05;21.10;99.90
17489;DHT22;8861;52.644;4.734;2023-08-24T14:55:37;21.20;99.90
17489;DHT22;8861;52.644;4.734;2023-08-24T14:58:04;21.30;99.90
17489;DHT22;8861;52.644;4.734;2023-08-24T15:00:31;21.50;99.90
17489;DHT22;8861;52.644;4.734;2023-08-24T15:03:00;21.70;99.90
17489;DHT22;8861;52.644;4.734;2023-08-24T15:05:27;21.90;99.90
17489;DHT22;8861;52.644;4.734;2023-08-24T15:07:54;22.20;99.90
17489;DHT22;8861;52.644;4.734;2023-08-24T15:10:21;22.40;99.90
17489;DHT22;8861;52.644;4.734;2023-08-24T15:12:48;22.60;99.90
17489;DHT22;8861;52.644;4.734;2023-08-24T15:15:15;22.60;99.90
17489;DHT22;8861;52.644;4.734;2023-08-24T15:17:44;22.50;99.90
17489;DHT22;8861;52.644;4.734;2023-08-24T15:20:13;22.50;99.90
17489;DHT22;8861;52.644;4.734;2023-08-24T15:22:40;22.40;99.90
17489;DHT22;8861;52.644;4.734;2023-08-24T15:25:07;22.30;99.90
17489;DHT22;8861;52.644;4.734;2023-08-24T15:27:36;22.30;99.90
17489;DHT22;8861;52.644;4.734;2023-08-24T15:30:04;22.30;99.90
17489;DHT22;8861;52.644;4.734;2023-08-24T15:32:31;22.30;99.90
17489;DHT22;8861;52.644;4.734;2023-08-24T15:34:58;22.30;99.90
17489;DHT22;8861;52.644;4.734;2023-08-24T15:37:28;22.30;99.90
17489;DHT22;8861;52.644;4.734;2023-08-24T15:39:55;22.40;99.90
17489;DHT22;8861;52.644;4.734;2023-08-24T15:42:23;22.50;99.90
17489;DHT22;8861;52.644;4.734;2023-08-24T15:44:50;22.70;99.90
17489;DHT22;8861;52.644;4.734;2023-08-24T15:47:17;22.80;99.90
17489;DHT22;8861;52.644;4.734;2023-08-24T15:49:45;22.80;99.90